createdAt,value
2022-12-18T00:00:25.135Z,1032.55
2022-12-18T00:01:25.341Z,1032.56
2022-12-18T00:02:25.454Z,1032.52
2022-12-18T00:03:25.765Z,1032.50
2022-12-18T00:04:25.845Z,1032.55
2022-12-18T00:05:25.973Z,1032.50
2022-12-18T00:06:26.142Z,1032.51
2022-12-18T00:07:26.301Z,1032.51
2022-12-18T00:08:26.466Z,1032.49
2022-12-18T00:09:31.201Z,1032.51
2022-12-18T00:10:27.815Z,1032.55
2022-12-18T00:11:27.027Z,1032.53
2022-12-18T00:12:29.812Z,1032.55
2022-12-18T00:13:27.372Z,1032.50
2022-12-18T00:14:27.534Z,1032.55
2022-12-18T00:15:27.703Z,1032.52
2022-12-18T00:16:28.141Z,1032.53
2022-12-18T00:17:28.053Z,1032.54
2022-12-18T00:18:28.241Z,1032.57
2022-12-18T00:19:28.384Z,1032.52
2022-12-18T00:20:28.570Z,1032.50
2022-12-18T00:21:28.746Z,1032.51
2022-12-18T00:22:28.911Z,1032.55
2022-12-18T00:23:29.072Z,1032.52
2022-12-18T00:24:29.235Z,1032.52
2022-12-18T00:25:29.398Z,1032.52
2022-12-18T00:26:29.575Z,1032.50
2022-12-18T00:27:29.754Z,1032.46
2022-12-18T00:28:29.899Z,1032.50
2022-12-18T00:29:30.071Z,1032.49
2022-12-18T00:30:30.267Z,1032.45
2022-12-18T00:31:30.462Z,1032.42
2022-12-18T00:32:30.579Z,1032.47
2022-12-18T00:33:30.749Z,1032.49
2022-12-18T00:34:30.927Z,1032.46
2022-12-18T00:35:31.099Z,1032.52
2022-12-18T00:36:31.257Z,1032.52
2022-12-18T00:37:31.416Z,1032.49
2022-12-18T00:38:31.588Z,1032.52
2022-12-18T00:39:31.795Z,1032.45
2022-12-18T00:40:31.931Z,1032.44
2022-12-18T00:41:32.085Z,1032.44
2022-12-18T00:42:32.257Z,1032.44
2022-12-18T00:43:32.411Z,1032.44
2022-12-18T00:44:32.610Z,1032.46
2022-12-18T00:45:32.815Z,1032.51
2022-12-18T00:46:32.907Z,1032.51
2022-12-18T00:47:33.077Z,1032.49
2022-12-18T00:48:33.263Z,1032.47
2022-12-18T00:49:33.449Z,1032.51
2022-12-18T00:50:33.577Z,1032.42
2022-12-18T00:51:33.738Z,1032.50
2022-12-18T00:52:33.905Z,1032.52
2022-12-18T00:53:34.077Z,1032.47
2022-12-18T00:54:34.253Z,1032.55
2022-12-18T00:55:34.408Z,1032.47
2022-12-18T00:56:34.606Z,1032.51
2022-12-18T00:57:34.741Z,1032.48
2022-12-18T00:58:34.914Z,1032.45
2022-12-18T00:59:35.119Z,1032.47
2022-12-18T01:00:35.323Z,1032.46
2022-12-18T01:01:35.524Z,1032.41
2022-12-18T01:02:35.805Z,1032.44
2022-12-18T01:03:36.294Z,1032.45
2022-12-18T01:04:35.965Z,1032.51
2022-12-18T01:05:36.126Z,1032.52
2022-12-18T01:06:36.303Z,1032.50
2022-12-18T01:07:36.453Z,1032.50
2022-12-18T01:08:36.646Z,1032.48
2022-12-18T01:09:36.813Z,1032.51
2022-12-18T01:10:36.971Z,1032.50
2022-12-18T01:11:37.157Z,1032.53
2022-12-18T01:12:37.306Z,1032.63
2022-12-18T01:13:37.863Z,1032.57
2022-12-18T01:14:37.655Z,1032.66
2022-12-18T01:15:37.820Z,1032.64
2022-12-18T01:16:38.041Z,1032.66
2022-12-18T01:17:38.143Z,1032.65
2022-12-18T01:18:38.330Z,1032.66
2022-12-18T01:19:38.481Z,1032.66
2022-12-18T01:20:38.682Z,1032.71
2022-12-18T01:21:38.843Z,1032.67
2022-12-18T01:22:39.030Z,1032.65
2022-12-18T01:23:39.479Z,1032.67
2022-12-18T01:24:39.344Z,1032.68
2022-12-18T01:25:39.522Z,1032.70
2022-12-18T01:26:39.688Z,1032.70
2022-12-18T01:27:39.851Z,1032.73
2022-12-18T01:28:41.084Z,1032.74
2022-12-18T01:29:40.183Z,1032.75
2022-12-18T01:30:40.354Z,1032.71
2022-12-18T01:31:40.584Z,1032.76
2022-12-18T01:32:40.719Z,1032.76
2022-12-18T01:33:41.365Z,1032.76
2022-12-18T01:34:41.026Z,1032.77
2022-12-18T01:35:41.209Z,1032.78
2022-12-18T01:36:41.363Z,1032.74
2022-12-18T01:37:41.519Z,1032.75
2022-12-18T01:38:41.712Z,1032.83
2022-12-18T01:39:41.894Z,1032.85
2022-12-18T01:40:42.039Z,1032.86
2022-12-18T01:41:42.194Z,1032.85
2022-12-18T01:42:42.401Z,1032.87
2022-12-18T01:43:42.567Z,1032.89
2022-12-18T01:44:42.726Z,1032.88
2022-12-18T01:45:42.959Z,1032.87
2022-12-18T01:46:43.046Z,1032.86
2022-12-18T01:47:43.213Z,1032.85
2022-12-18T01:48:43.400Z,1032.85
2022-12-18T01:49:43.568Z,1032.94
2022-12-18T01:50:43.715Z,1032.88
2022-12-18T01:51:43.888Z,1032.90
2022-12-18T01:52:44.050Z,1032.91
2022-12-18T01:53:44.247Z,1032.86
2022-12-18T01:54:44.417Z,1032.95
2022-12-18T01:55:44.586Z,1032.95
2022-12-18T01:56:44.768Z,1032.99
2022-12-18T01:57:44.906Z,1032.97
2022-12-18T01:58:45.097Z,1032.94
2022-12-18T01:59:45.257Z,1032.94
2022-12-18T02:00:45.504Z,1032.92
2022-12-18T02:01:45.746Z,1032.91
2022-12-18T02:02:45.960Z,1032.92
2022-12-18T02:03:45.971Z,1032.90
2022-12-18T02:04:49.593Z,1032.91
2022-12-18T02:05:46.316Z,1032.92
2022-12-18T02:06:46.488Z,1032.94
2022-12-18T02:07:46.686Z,1032.93
2022-12-18T02:08:46.820Z,1032.96
2022-12-18T02:09:46.979Z,1032.98
2022-12-18T02:10:47.138Z,1032.98
2022-12-18T02:11:47.336Z,1033.04
2022-12-18T02:12:47.501Z,1033.04
2022-12-18T02:13:47.654Z,1033.06
2022-12-18T02:14:47.863Z,1033.04
2022-12-18T02:15:48.019Z,1033.10
2022-12-18T02:16:48.234Z,1033.06
2022-12-18T02:17:48.342Z,1033.09
2022-12-18T02:18:48.509Z,1033.08
2022-12-18T02:19:48.692Z,1033.14
2022-12-18T02:20:48.894Z,1033.14
2022-12-18T02:21:49.011Z,1033.09
2022-12-18T02:22:49.189Z,1033.09
2022-12-18T02:23:49.342Z,1033.02
2022-12-18T02:24:49.532Z,1033.02
2022-12-18T02:25:49.670Z,1032.99
2022-12-18T02:26:49.851Z,1032.91
2022-12-18T02:27:50.012Z,1032.97
2022-12-18T02:28:50.192Z,1032.96
2022-12-18T02:29:56.032Z,1032.96
2022-12-18T02:30:51.547Z,1032.95
2022-12-18T02:31:50.691Z,1032.95
2022-12-18T02:32:50.860Z,1032.95
2022-12-18T02:33:51.012Z,1032.97
2022-12-18T02:34:51.224Z,1032.97
2022-12-18T02:35:51.373Z,1033.01
2022-12-18T02:36:51.533Z,1033.03
2022-12-18T02:37:51.681Z,1033.00
2022-12-18T02:38:51.852Z,1032.99
2022-12-18T02:39:52.024Z,1032.97
2022-12-18T02:40:52.192Z,1032.99
2022-12-18T02:41:52.350Z,1032.99
2022-12-18T02:42:52.538Z,1032.97
2022-12-18T02:43:52.691Z,1032.96
2022-12-18T02:44:52.842Z,1033.05
2022-12-18T02:45:53.133Z,1033.03
2022-12-18T02:46:53.172Z,1033.02
2022-12-18T02:47:53.350Z,1033.07
2022-12-18T02:48:53.511Z,1033.09
2022-12-18T02:49:53.669Z,1033.04
2022-12-18T02:50:53.868Z,1033.04
2022-12-18T02:51:53.991Z,1033.08
2022-12-18T02:52:54.164Z,1033.04
2022-12-18T02:53:54.338Z,1033.06
2022-12-18T02:54:54.511Z,1033.04
2022-12-18T02:55:54.672Z,1033.02
2022-12-18T02:56:54.851Z,1033.08
2022-12-18T02:57:55.007Z,1033.07
2022-12-18T02:58:55.174Z,1033.10
2022-12-18T02:59:55.347Z,1033.11
2022-12-18T03:00:55.644Z,1033.15
2022-12-18T03:01:55.910Z,1033.14
2022-12-18T03:02:56.044Z,1033.11
2022-12-18T03:03:56.054Z,1033.17
2022-12-18T03:04:56.218Z,1033.12
2022-12-18T03:05:56.417Z,1033.14
2022-12-18T03:06:56.546Z,1033.08
2022-12-18T03:07:56.706Z,1033.14
2022-12-18T03:08:56.875Z,1033.12
2022-12-18T03:09:57.054Z,1033.12
2022-12-18T03:10:57.224Z,1033.16
2022-12-18T03:11:57.385Z,1033.20
2022-12-18T03:12:57.555Z,1033.18
2022-12-18T03:13:57.745Z,1033.16
2022-12-18T03:14:57.866Z,1033.14
2022-12-18T03:15:58.035Z,1033.21
2022-12-18T03:16:58.273Z,1033.18
2022-12-18T03:17:58.376Z,1033.27
2022-12-18T03:18:58.555Z,1033.23
2022-12-18T03:19:58.724Z,1033.22
2022-12-18T03:20:58.898Z,1033.21
2022-12-18T03:21:59.098Z,1033.20
2022-12-18T03:22:59.260Z,1033.21
2022-12-18T03:23:59.427Z,1033.22
2022-12-18T03:24:59.597Z,1033.19
2022-12-18T03:26:04.388Z,1033.18
2022-12-18T03:27:00.935Z,1033.15
2022-12-18T03:28:00.075Z,1033.11
2022-12-18T03:29:00.237Z,1033.12
2022-12-18T03:30:00.406Z,1033.12
2022-12-18T03:31:00.677Z,1033.08
2022-12-18T03:32:00.729Z,1033.08
2022-12-18T03:33:01.421Z,1033.11
2022-12-18T03:34:01.090Z,1033.14
2022-12-18T03:35:01.299Z,1033.12
2022-12-18T03:36:01.425Z,1033.13
2022-12-18T03:37:01.600Z,1033.10
2022-12-18T03:38:01.762Z,1033.08
2022-12-18T03:39:01.930Z,1033.13
2022-12-18T03:40:02.090Z,1033.11
2022-12-18T03:41:02.261Z,1033.07
2022-12-18T03:42:02.441Z,1033.08
2022-12-18T03:43:02.593Z,1033.03
2022-12-18T03:44:02.758Z,1033.05
2022-12-18T03:45:02.920Z,1032.98
2022-12-18T03:46:03.145Z,1033.00
2022-12-18T03:47:03.264Z,1033.01
2022-12-18T03:48:03.442Z,1032.98
2022-12-18T03:49:03.607Z,1033.03
2022-12-18T03:50:08.314Z,1032.99
2022-12-18T03:51:04.950Z,1032.97
2022-12-18T03:52:04.160Z,1032.99
2022-12-18T03:53:04.325Z,1032.99
2022-12-18T03:54:04.479Z,1033.02
2022-12-18T03:55:04.661Z,1033.06
2022-12-18T03:56:04.808Z,1033.10
2022-12-18T03:57:04.986Z,1033.16
2022-12-18T03:58:05.193Z,1033.17
2022-12-18T03:59:05.324Z,1033.21
2022-12-18T04:00:05.493Z,1033.24
2022-12-18T04:01:05.695Z,1033.29
2022-12-18T04:02:06.011Z,1033.29
2022-12-18T04:03:06.113Z,1033.29
2022-12-18T04:04:06.265Z,1033.34
2022-12-18T04:05:06.358Z,1033.31
2022-12-18T04:06:06.536Z,1033.31
2022-12-18T04:07:06.720Z,1033.31
2022-12-18T04:08:06.899Z,1033.34
2022-12-18T04:09:07.022Z,1033.35
2022-12-18T04:10:07.187Z,1033.35
2022-12-18T04:11:07.363Z,1033.31
2022-12-18T04:12:07.518Z,1033.36
2022-12-18T04:13:07.704Z,1033.33
2022-12-18T04:14:09.154Z,1033.33
2022-12-18T04:15:08.070Z,1033.33
2022-12-18T04:16:08.264Z,1033.31
2022-12-18T04:17:08.476Z,1033.29
2022-12-18T04:18:08.595Z,1033.28
2022-12-18T04:19:08.791Z,1033.29
2022-12-18T04:20:08.934Z,1033.30
2022-12-18T04:21:09.106Z,1033.31
2022-12-18T04:22:09.292Z,1033.35
2022-12-18T04:23:09.481Z,1033.41
2022-12-18T04:24:09.629Z,1033.43
2022-12-18T04:25:09.792Z,1033.50
2022-12-18T04:26:09.958Z,1033.52
2022-12-18T04:27:10.151Z,1033.50
2022-12-18T04:28:10.322Z,1033.51
2022-12-18T04:29:10.485Z,1033.54
2022-12-18T04:30:10.650Z,1033.55
2022-12-18T04:31:10.887Z,1033.51
2022-12-18T04:32:11.022Z,1033.52
2022-12-18T04:33:11.175Z,1033.51
2022-12-18T04:34:11.382Z,1033.51
2022-12-18T04:35:11.548Z,1033.50
2022-12-18T04:36:11.708Z,1033.46
2022-12-18T04:37:11.861Z,1033.48
2022-12-18T04:38:12.062Z,1033.46
2022-12-18T04:39:12.192Z,1033.47
2022-12-18T04:40:12.366Z,1033.44
2022-12-18T04:41:12.516Z,1033.50
2022-12-18T04:42:12.696Z,1033.46
2022-12-18T04:43:12.952Z,1033.52
2022-12-18T04:44:13.033Z,1033.51
2022-12-18T04:45:13.187Z,1033.46
2022-12-18T04:46:13.426Z,1033.48
2022-12-18T04:47:13.517Z,1033.50
2022-12-18T04:48:13.705Z,1033.48
2022-12-18T04:49:13.866Z,1033.43
2022-12-18T04:50:14.037Z,1033.45
2022-12-18T04:51:14.197Z,1033.50
2022-12-18T04:52:14.368Z,1033.47
2022-12-18T04:53:14.553Z,1033.46
2022-12-18T04:54:14.713Z,1033.48
2022-12-18T04:55:14.862Z,1033.53
2022-12-18T04:56:15.065Z,1033.49
2022-12-18T04:57:15.227Z,1033.55
2022-12-18T04:58:15.390Z,1033.57
2022-12-18T04:59:15.563Z,1033.54
2022-12-18T05:00:15.725Z,1033.51
2022-12-18T05:01:16.001Z,1033.52
2022-12-18T05:02:16.265Z,1033.59
2022-12-18T05:03:16.282Z,1033.64
2022-12-18T05:04:16.497Z,1033.66
2022-12-18T05:05:16.606Z,1033.63
2022-12-18T05:06:16.774Z,1033.65
2022-12-18T05:07:16.954Z,1033.67
2022-12-18T05:08:17.121Z,1033.64
2022-12-18T05:09:17.349Z,1033.63
2022-12-18T05:10:17.455Z,1033.64
2022-12-18T05:11:17.632Z,1033.60
2022-12-18T05:12:17.784Z,1033.62
2022-12-18T05:13:17.954Z,1033.61
2022-12-18T05:14:18.126Z,1033.61
2022-12-18T05:15:18.295Z,1033.58
2022-12-18T05:16:18.570Z,1033.60
2022-12-18T05:17:18.621Z,1033.55
2022-12-18T05:18:18.784Z,1033.59
2022-12-18T05:19:18.975Z,1033.56
2022-12-18T05:20:19.141Z,1033.60
2022-12-18T05:21:19.321Z,1033.60
2022-12-18T05:22:19.481Z,1033.62
2022-12-18T05:23:19.650Z,1033.64
2022-12-18T05:24:19.811Z,1033.71
2022-12-18T05:25:19.972Z,1033.69
2022-12-18T05:26:20.156Z,1033.73
2022-12-18T05:27:20.327Z,1033.72
2022-12-18T05:28:20.493Z,1033.75
2022-12-18T05:29:20.663Z,1033.70
2022-12-18T05:30:20.827Z,1033.70
2022-12-18T05:31:21.088Z,1033.73
2022-12-18T05:32:21.151Z,1033.74
2022-12-18T05:33:21.333Z,1033.75
2022-12-18T05:34:21.493Z,1033.78
2022-12-18T05:35:21.687Z,1033.82
2022-12-18T05:36:21.836Z,1033.85
2022-12-18T05:37:21.995Z,1033.85
2022-12-18T05:38:22.187Z,1033.84
2022-12-18T05:39:22.374Z,1033.80
2022-12-18T05:40:22.515Z,1033.80
2022-12-18T05:41:22.673Z,1033.83
2022-12-18T05:42:22.869Z,1033.84
2022-12-18T05:43:23.064Z,1033.81
2022-12-18T05:44:23.200Z,1033.87
2022-12-18T05:45:23.360Z,1033.86
2022-12-18T05:46:23.597Z,1033.85
2022-12-18T05:47:23.689Z,1033.84
2022-12-18T05:48:23.876Z,1033.84
2022-12-18T05:49:24.046Z,1033.83
2022-12-18T05:50:24.205Z,1033.85
2022-12-18T05:51:24.366Z,1033.86
2022-12-18T05:52:24.562Z,1033.84
2022-12-18T05:53:24.726Z,1033.86
2022-12-18T05:54:24.883Z,1033.90
2022-12-18T05:55:25.044Z,1033.93
2022-12-18T05:56:25.217Z,1033.92
2022-12-18T05:57:25.365Z,1033.88
2022-12-18T05:58:25.550Z,1033.90
2022-12-18T05:59:25.696Z,1033.92
2022-12-18T06:00:25.876Z,1033.87
2022-12-18T06:01:26.117Z,1033.88
2022-12-18T06:02:26.312Z,1033.94
2022-12-18T06:03:32.170Z,1033.95
2022-12-18T06:04:27.567Z,1033.97
2022-12-18T06:05:26.727Z,1033.95
2022-12-18T06:06:26.893Z,1034.01
2022-12-18T06:07:27.052Z,1033.99
2022-12-18T06:08:27.249Z,1033.99
2022-12-18T06:09:27.398Z,1033.99
2022-12-18T06:10:27.565Z,1034.00
2022-12-18T06:11:27.752Z,1034.00
2022-12-18T06:12:27.904Z,1034.08
2022-12-18T06:13:28.096Z,1034.06
2022-12-18T06:14:28.278Z,1034.06
2022-12-18T06:15:28.430Z,1034.14
2022-12-18T06:16:28.696Z,1034.13
2022-12-18T06:17:28.748Z,1034.14
2022-12-18T06:18:28.926Z,1034.09
2022-12-18T06:19:29.106Z,1034.12
2022-12-18T06:20:33.409Z,1034.14
2022-12-18T06:21:29.441Z,1034.12
2022-12-18T06:22:29.597Z,1034.14
2022-12-18T06:23:29.767Z,1034.14
2022-12-18T06:24:29.939Z,1034.08
2022-12-18T06:25:30.099Z,1034.09
2022-12-18T06:26:30.299Z,1034.08
2022-12-18T06:27:30.451Z,1034.09
2022-12-18T06:28:30.624Z,1034.00
2022-12-18T06:29:30.833Z,1034.02
2022-12-18T06:30:30.981Z,1034.04
2022-12-18T06:31:31.154Z,1034.01
2022-12-18T06:32:31.289Z,1034.03
2022-12-18T06:33:31.461Z,1034.06
2022-12-18T06:34:31.642Z,1034.05
2022-12-18T06:35:31.799Z,1034.10
2022-12-18T06:36:31.962Z,1034.14
2022-12-18T06:37:32.138Z,1034.15
2022-12-18T06:38:32.305Z,1034.23
2022-12-18T06:39:32.481Z,1034.26
2022-12-18T06:40:32.640Z,1034.26
2022-12-18T06:41:32.796Z,1034.30
2022-12-18T06:42:32.993Z,1034.27
2022-12-18T06:43:33.140Z,1034.28
2022-12-18T06:44:33.349Z,1034.33
2022-12-18T06:45:33.581Z,1034.33
2022-12-18T06:46:33.682Z,1034.37
2022-12-18T06:47:33.838Z,1034.41
2022-12-18T06:48:34.012Z,1034.42
2022-12-18T06:49:34.210Z,1034.48
2022-12-18T06:50:34.332Z,1034.51
2022-12-18T06:51:34.513Z,1034.48
2022-12-18T06:52:34.679Z,1034.51
2022-12-18T06:53:34.851Z,1034.54
2022-12-18T06:54:35.272Z,1034.51
2022-12-18T06:55:35.196Z,1034.49
2022-12-18T06:56:35.362Z,1034.46
2022-12-18T06:57:35.521Z,1034.50
2022-12-18T06:58:35.696Z,1034.43
2022-12-18T06:59:35.877Z,1034.51
2022-12-18T07:00:36.061Z,1034.45
2022-12-18T07:01:36.297Z,1034.43
2022-12-18T07:02:36.489Z,1034.47
2022-12-18T07:03:36.842Z,1034.49
2022-12-18T07:04:36.800Z,1034.46
2022-12-18T07:05:36.918Z,1034.57
2022-12-18T07:06:37.093Z,1034.58
2022-12-18T07:07:37.275Z,1034.57
2022-12-18T07:08:37.451Z,1034.57
2022-12-18T07:09:37.657Z,1034.55
2022-12-18T07:10:40.831Z,1034.57
2022-12-18T07:11:38.954Z,1034.53
2022-12-18T07:12:38.144Z,1034.56
2022-12-18T07:13:38.753Z,1034.52
2022-12-18T07:14:38.485Z,1034.48
2022-12-18T07:15:38.639Z,1034.45
2022-12-18T07:16:38.847Z,1034.51
2022-12-18T07:17:38.980Z,1034.47
2022-12-18T07:18:39.157Z,1034.44
2022-12-18T07:19:39.327Z,1034.43
2022-12-18T07:20:39.486Z,1034.41
2022-12-18T07:21:39.656Z,1034.39
2022-12-18T07:22:39.884Z,1034.35
2022-12-18T07:23:40.362Z,1034.38
2022-12-18T07:24:40.203Z,1034.38
2022-12-18T07:25:40.382Z,1034.38
2022-12-18T07:26:40.565Z,1034.39
2022-12-18T07:27:40.760Z,1034.43
2022-12-18T07:28:40.896Z,1034.49
2022-12-18T07:29:41.065Z,1034.44
2022-12-18T07:30:41.238Z,1034.45
2022-12-18T07:31:41.556Z,1034.42
2022-12-18T07:32:41.610Z,1034.43
2022-12-18T07:33:42.147Z,1034.42
2022-12-18T07:34:41.960Z,1034.42
2022-12-18T07:35:42.138Z,1034.43
2022-12-18T07:36:42.322Z,1034.41
2022-12-18T07:37:42.556Z,1034.43
2022-12-18T07:38:42.687Z,1034.42
2022-12-18T07:39:42.828Z,1034.40
2022-12-18T07:40:43.028Z,1034.40
2022-12-18T07:41:46.782Z,1034.37
2022-12-18T07:42:43.602Z,1034.34
2022-12-18T07:43:43.898Z,1034.41
2022-12-18T07:44:43.679Z,1034.36
2022-12-18T07:45:43.941Z,1034.42
2022-12-18T07:46:44.035Z,1034.42
2022-12-18T07:47:44.223Z,1034.38
2022-12-18T07:48:45.533Z,1034.37
2022-12-18T07:49:44.569Z,1034.41
2022-12-18T07:50:44.744Z,1034.36
2022-12-18T07:51:44.985Z,1034.38
2022-12-18T07:52:45.098Z,1034.41
2022-12-18T07:53:45.279Z,1034.43
2022-12-18T07:54:45.469Z,1034.43
2022-12-18T07:56:17.917Z,1034.45
2022-12-18T07:56:46.791Z,1034.46
2022-12-18T07:57:51.251Z,1034.48
2022-12-18T07:58:47.119Z,1034.49
2022-12-18T07:59:46.289Z,1034.51
2022-12-18T08:00:46.474Z,1034.53
2022-12-18T08:01:46.825Z,1034.57
2022-12-18T08:02:46.924Z,1034.55
2022-12-18T08:03:46.990Z,1034.53
2022-12-18T08:04:47.179Z,1034.58
2022-12-18T08:05:47.315Z,1034.56
2022-12-18T08:06:48.218Z,1034.55
2022-12-18T08:07:47.683Z,1034.58
2022-12-18T08:08:47.862Z,1034.63
2022-12-18T08:09:48.037Z,1034.63
2022-12-18T08:10:48.212Z,1034.62
2022-12-18T08:11:48.408Z,1034.63
2022-12-18T08:12:48.570Z,1034.66
2022-12-18T08:13:48.713Z,1034.63
2022-12-18T08:14:48.893Z,1034.67
2022-12-18T08:15:49.074Z,1034.73
2022-12-18T08:16:49.279Z,1034.75
2022-12-18T08:17:49.443Z,1034.81
2022-12-18T08:18:49.750Z,1034.81
2022-12-18T08:19:49.777Z,1034.77
2022-12-18T08:20:49.954Z,1034.79
2022-12-18T08:21:50.140Z,1034.73
2022-12-18T08:22:50.355Z,1034.79
2022-12-18T08:23:51.536Z,1034.78
2022-12-18T08:24:50.674Z,1034.78
2022-12-18T08:25:50.862Z,1034.74
2022-12-18T08:27:06.799Z,1034.73
2022-12-18T08:27:52.247Z,1034.78
2022-12-18T08:28:51.416Z,1034.73
2022-12-18T08:29:51.564Z,1034.74
2022-12-18T08:30:51.771Z,1034.84
2022-12-18T08:31:51.934Z,1034.81
2022-12-18T08:32:52.073Z,1034.80
2022-12-18T08:33:52.276Z,1034.79
2022-12-18T08:34:52.398Z,1034.84
2022-12-18T08:35:52.556Z,1034.80
2022-12-18T08:36:52.723Z,1034.80
2022-12-18T08:37:52.906Z,1034.82
2022-12-18T08:38:53.086Z,1034.86
2022-12-18T08:39:53.226Z,1034.84
2022-12-18T08:40:53.395Z,1034.93
2022-12-18T08:41:53.567Z,1034.90
2022-12-18T08:42:53.747Z,1034.89
2022-12-18T08:43:53.917Z,1034.94
2022-12-18T08:44:54.081Z,1034.95
2022-12-18T08:45:54.360Z,1034.92
2022-12-18T08:46:54.425Z,1034.99
2022-12-18T08:47:54.630Z,1035.02
2022-12-18T08:48:54.784Z,1035.04
2022-12-18T08:49:54.951Z,1035.05
2022-12-18T08:50:55.117Z,1035.05
2022-12-18T08:51:55.295Z,1035.09
2022-12-18T08:52:55.467Z,1035.10
2022-12-18T08:53:55.659Z,1035.14
2022-12-18T08:54:55.828Z,1035.16
2022-12-18T08:55:55.987Z,1035.17
2022-12-18T08:56:56.152Z,1035.17
2022-12-18T08:57:56.361Z,1035.19
2022-12-18T08:58:56.478Z,1035.19
2022-12-18T08:59:56.674Z,1035.16
2022-12-18T09:00:56.858Z,1035.14
2022-12-18T09:01:57.174Z,1035.18
2022-12-18T09:02:57.360Z,1035.20
2022-12-18T09:03:57.349Z,1035.19
2022-12-18T09:04:57.898Z,1035.19
2022-12-18T09:05:57.674Z,1035.17
2022-12-18T09:06:57.839Z,1035.18
2022-12-18T09:07:58.018Z,1035.19
2022-12-18T09:08:58.183Z,1035.22
2022-12-18T09:09:58.381Z,1035.18
2022-12-18T09:10:58.539Z,1035.22
2022-12-18T09:11:58.737Z,1035.21
2022-12-18T09:12:58.890Z,1035.23
2022-12-18T09:13:59.054Z,1035.21
2022-12-18T09:14:59.230Z,1035.22
2022-12-18T09:15:59.418Z,1035.22
2022-12-18T09:16:59.626Z,1035.12
2022-12-18T09:17:59.735Z,1035.12
2022-12-18T09:18:59.917Z,1035.11
2022-12-18T09:20:00.078Z,1035.11
2022-12-18T09:21:00.239Z,1035.12
2022-12-18T09:22:00.409Z,1035.12
2022-12-18T09:23:00.561Z,1035.22
2022-12-18T09:24:00.760Z,1035.23
2022-12-18T09:25:00.919Z,1035.12
2022-12-18T09:26:01.060Z,1035.21
2022-12-18T09:27:01.235Z,1035.17
2022-12-18T09:28:01.420Z,1035.22
2022-12-18T09:29:01.591Z,1035.15
2022-12-18T09:30:01.740Z,1035.16
2022-12-18T09:31:01.993Z,1035.17
2022-12-18T09:32:02.103Z,1035.23
2022-12-18T09:33:02.240Z,1035.25
2022-12-18T09:34:02.445Z,1035.24
2022-12-18T09:35:02.572Z,1035.27
2022-12-18T09:36:02.763Z,1035.26
2022-12-18T09:37:02.910Z,1035.25
2022-12-18T09:38:03.131Z,1035.18
2022-12-18T09:39:07.795Z,1035.11
2022-12-18T09:40:04.462Z,1035.15
2022-12-18T09:41:03.574Z,1035.10
2022-12-18T09:42:03.767Z,1035.03
2022-12-18T09:43:03.916Z,1035.01
2022-12-18T09:44:04.131Z,1034.98
2022-12-18T09:45:04.314Z,1034.91
2022-12-18T09:46:04.514Z,1034.90
2022-12-18T09:47:04.607Z,1034.88
2022-12-18T09:48:04.773Z,1034.84
2022-12-18T09:49:04.984Z,1034.81
2022-12-18T09:50:05.150Z,1034.77
2022-12-18T09:51:05.292Z,1034.80
2022-12-18T09:52:05.477Z,1034.76
2022-12-18T09:53:05.734Z,1034.70
2022-12-18T09:54:05.842Z,1034.76
2022-12-18T09:55:05.989Z,1034.74
2022-12-18T09:56:06.136Z,1034.77
2022-12-18T09:57:06.336Z,1034.77
2022-12-18T09:58:06.494Z,1034.77
2022-12-18T09:59:06.657Z,1034.76
2022-12-18T10:00:06.835Z,1034.73
2022-12-18T10:01:07.049Z,1034.68
2022-12-18T10:02:07.219Z,1034.67
2022-12-18T10:03:07.427Z,1034.68
2022-12-18T10:04:07.555Z,1034.61
2022-12-18T10:05:07.650Z,1034.65
2022-12-18T10:06:07.826Z,1034.66
2022-12-18T10:07:09.423Z,1034.63
2022-12-18T10:08:08.192Z,1034.57
2022-12-18T10:09:08.385Z,1034.61
2022-12-18T10:10:08.512Z,1034.59
2022-12-18T10:11:08.666Z,1034.64
2022-12-18T10:12:08.838Z,1034.55
2022-12-18T10:13:08.994Z,1034.57
2022-12-18T10:14:09.195Z,1034.60
2022-12-18T10:15:09.338Z,1034.58
2022-12-18T10:16:09.604Z,1034.57
2022-12-18T10:17:09.694Z,1034.60
2022-12-18T10:18:09.868Z,1034.61
2022-12-18T10:19:10.017Z,1034.56
2022-12-18T10:20:10.186Z,1034.56
2022-12-18T10:21:10.377Z,1034.57
2022-12-18T10:22:10.538Z,1034.60
2022-12-18T10:23:10.677Z,1034.55
2022-12-18T10:24:10.861Z,1034.53
2022-12-18T10:25:11.027Z,1034.52
2022-12-18T10:26:11.189Z,1034.53
2022-12-18T10:27:11.368Z,1034.53
2022-12-18T10:28:11.522Z,1034.58
2022-12-18T10:29:11.738Z,1034.59
2022-12-18T10:30:11.918Z,1034.60
2022-12-18T10:31:12.091Z,1034.60
2022-12-18T10:32:12.243Z,1034.62
2022-12-18T10:33:12.389Z,1034.60
2022-12-18T10:34:12.571Z,1034.54
2022-12-18T10:35:12.780Z,1034.56
2022-12-18T10:36:12.923Z,1034.54
2022-12-18T10:37:13.107Z,1034.54
2022-12-18T10:38:13.282Z,1034.52
2022-12-18T10:39:13.469Z,1034.51
2022-12-18T10:40:18.465Z,1034.54
2022-12-18T10:41:14.839Z,1034.44
2022-12-18T10:42:14.018Z,1034.47
2022-12-18T10:43:14.156Z,1034.35
2022-12-18T10:44:14.350Z,1034.35
2022-12-18T10:45:14.744Z,1034.37
2022-12-18T10:46:14.713Z,1034.40
2022-12-18T10:47:14.826Z,1034.36
2022-12-18T10:48:15.015Z,1034.34
2022-12-18T10:49:15.158Z,1034.28
2022-12-18T10:50:15.361Z,1034.29
2022-12-18T10:51:15.489Z,1034.28
2022-12-18T10:52:15.670Z,1034.26
2022-12-18T10:53:15.860Z,1034.22
2022-12-18T10:54:16.037Z,1034.18
2022-12-18T10:55:16.441Z,1034.21
2022-12-18T10:56:16.351Z,1034.20
2022-12-18T10:57:16.527Z,1034.22
2022-12-18T10:58:16.700Z,1034.18
2022-12-18T10:59:16.885Z,1034.18
2022-12-18T11:00:17.110Z,1034.19
2022-12-18T11:01:17.418Z,1034.21
2022-12-18T11:02:17.560Z,1034.16
2022-12-18T11:03:17.625Z,1034.19
2022-12-18T11:04:17.727Z,1034.26
2022-12-18T11:05:17.907Z,1034.22
2022-12-18T11:06:18.085Z,1034.28
2022-12-18T11:07:18.233Z,1034.24
2022-12-18T11:08:18.418Z,1034.28
2022-12-18T11:09:18.585Z,1034.28
2022-12-18T11:10:18.736Z,1034.31
2022-12-18T11:11:18.963Z,1034.30
2022-12-18T11:12:19.106Z,1034.32
2022-12-18T11:13:19.280Z,1034.32
2022-12-18T11:14:19.463Z,1034.32
2022-12-18T11:15:19.633Z,1034.32
2022-12-18T11:16:19.913Z,1034.32
2022-12-18T11:17:27.306Z,1034.26
2022-12-18T11:18:21.144Z,1034.26
2022-12-18T11:19:20.311Z,1034.23
2022-12-18T11:20:20.474Z,1034.17
2022-12-18T11:21:20.663Z,1034.20
2022-12-18T11:22:20.832Z,1034.14
2022-12-18T11:23:20.968Z,1034.15
2022-12-18T11:24:21.145Z,1034.16
2022-12-18T11:25:36.690Z,1034.19
2022-12-18T11:26:22.513Z,1034.19
2022-12-18T11:27:21.666Z,1034.16
2022-12-18T11:28:21.845Z,1034.15
2022-12-18T11:29:22.014Z,1034.16
2022-12-18T11:30:22.198Z,1034.15
2022-12-18T11:31:22.417Z,1034.18
2022-12-18T11:32:22.524Z,1034.22
2022-12-18T11:33:22.680Z,1034.22
2022-12-18T11:34:30.533Z,1034.25
2022-12-18T11:35:24.059Z,1034.25
2022-12-18T11:36:23.195Z,1034.15
2022-12-18T11:37:23.396Z,1034.15
2022-12-18T11:38:23.559Z,1034.17
2022-12-18T11:39:23.706Z,1034.15
2022-12-18T11:40:23.884Z,1034.16
2022-12-18T11:41:24.056Z,1034.20
2022-12-18T11:42:24.267Z,1034.22
2022-12-18T11:43:24.417Z,1034.25
2022-12-18T11:44:24.597Z,1034.24
2022-12-18T11:45:24.772Z,1034.31
2022-12-18T11:46:25.039Z,1034.31
2022-12-18T11:47:25.130Z,1034.36
2022-12-18T11:48:25.282Z,1034.36
2022-12-18T11:49:25.485Z,1034.39
2022-12-18T11:50:25.649Z,1034.41
2022-12-18T11:51:27.393Z,1034.37
2022-12-18T11:52:25.993Z,1034.38
2022-12-18T11:53:26.177Z,1034.41
2022-12-18T11:54:26.370Z,1034.41
2022-12-18T11:55:26.516Z,1034.46
2022-12-18T11:56:26.689Z,1034.48
2022-12-18T11:57:26.837Z,1034.38
2022-12-18T11:58:37.700Z,1034.41
2022-12-18T11:59:28.178Z,1034.36
2022-12-18T12:00:27.339Z,1034.42
2022-12-18T12:01:27.533Z,1034.40
2022-12-18T12:02:27.708Z,1034.42
2022-12-18T12:03:27.829Z,1034.39
2022-12-18T12:04:28.033Z,1034.39
2022-12-18T12:05:28.155Z,1034.34
2022-12-18T12:06:28.310Z,1034.41
2022-12-18T12:07:28.460Z,1034.33